createdAt,value
2022-12-08T00:02:53.995Z,3.00
2022-12-08T00:05:33.768Z,3.40
2022-12-08T00:08:22.811Z,3.00
2022-12-08T00:10:54.878Z,3.00
2022-12-08T00:13:26.486Z,3.40
2022-12-08T00:16:03.155Z,3.60
2022-12-08T00:18:34.699Z,3.20
2022-12-08T00:21:07.885Z,3.00
2022-12-08T00:23:47.148Z,2.90
2022-12-08T00:26:18.986Z,3.30
2022-12-08T00:28:51.556Z,3.40
2022-12-08T00:31:25.074Z,3.90
2022-12-08T00:34:09.284Z,4.00
2022-12-08T00:37:07.317Z,3.50
2022-12-08T00:39:57.666Z,3.50
2022-12-08T00:42:48.726Z,3.10
2022-12-08T00:45:44.791Z,3.40
2022-12-08T00:48:16.365Z,3.40
2022-12-08T00:50:47.853Z,4.00
2022-12-08T00:53:19.345Z,4.90
2022-12-08T00:55:50.862Z,5.00
2022-12-08T00:58:36.427Z,5.80
2022-12-08T01:01:45.511Z,4.80
2022-12-08T01:04:25.251Z,4.30
2022-12-08T01:07:22.748Z,4.10
2022-12-08T01:09:59.338Z,4.30
2022-12-08T01:12:32.141Z,3.80
2022-12-08T01:15:03.727Z,3.80
2022-12-08T01:17:35.584Z,3.20
2022-12-08T01:20:09.327Z,3.80
2022-12-08T01:22:41.000Z,3.60
2022-12-08T01:25:25.994Z,3.50
2022-12-08T01:27:57.650Z,3.80
2022-12-08T01:32:31.368Z,4.00
2022-12-08T01:33:33.728Z,3.70
2022-12-08T01:36:08.467Z,3.30
2022-12-08T01:41:15.304Z,3.00
2022-12-08T01:44:03.143Z,3.10
2022-12-08T01:46:37.550Z,3.20
2022-12-08T01:49:14.064Z,4.00
2022-12-08T01:51:50.504Z,3.40
2022-12-08T01:54:24.541Z,3.50
2022-12-08T01:57:05.248Z,4.00
2022-12-08T01:59:43.145Z,3.90
2022-12-08T02:02:18.381Z,4.10
2022-12-08T02:04:50.542Z,3.50
2022-12-08T02:07:23.768Z,4.20
2022-12-08T02:09:56.674Z,3.90
2022-12-08T02:12:30.077Z,4.00
2022-12-08T02:15:05.499Z,4.30
2022-12-08T02:17:53.917Z,4.30
2022-12-08T02:20:39.590Z,4.30
2022-12-08T02:23:24.587Z,4.40
2022-12-08T02:26:23.711Z,3.90
2022-12-08T02:29:24.547Z,5.00
2022-12-08T02:32:23.626Z,4.60
2022-12-08T02:35:01.383Z,4.80
2022-12-08T02:37:38.923Z,4.80
2022-12-08T02:40:20.915Z,5.70
2022-12-08T02:42:58.704Z,5.00
2022-12-08T02:45:35.779Z,5.00
2022-12-08T02:48:07.878Z,7.10
2022-12-08T02:50:39.318Z,6.50
2022-12-08T02:55:53.047Z,7.10
2022-12-08T02:58:49.632Z,6.30
2022-12-08T03:01:44.717Z,7.20
2022-12-08T03:04:24.237Z,7.10
2022-12-08T03:07:04.427Z,7.30
2022-12-08T03:09:41.229Z,7.10
2022-12-08T03:12:19.919Z,7.50
2022-12-08T03:14:55.339Z,7.80
2022-12-08T03:17:30.006Z,8.20
2022-12-08T03:20:21.396Z,8.10
2022-12-08T03:23:21.345Z,8.50
2022-12-08T03:25:58.438Z,7.60
2022-12-08T03:28:30.302Z,7.60
2022-12-08T03:31:05.411Z,8.10
2022-12-08T03:33:44.699Z,8.10
2022-12-08T03:36:17.520Z,8.70
2022-12-08T03:38:52.720Z,8.30
2022-12-08T03:41:24.930Z,7.90
2022-12-08T03:43:59.849Z,8.00
2022-12-08T03:46:49.331Z,8.00
2022-12-08T03:49:31.349Z,7.90
2022-12-08T03:52:03.027Z,8.30
2022-12-08T03:54:35.881Z,7.20
2022-12-08T03:57:07.482Z,8.10
2022-12-08T03:59:39.315Z,7.80
2022-12-08T04:02:10.836Z,7.90
2022-12-08T04:04:42.424Z,7.50
2022-12-08T04:07:16.241Z,7.90
2022-12-08T04:09:47.761Z,6.80
2022-12-08T04:12:19.188Z,8.30
2022-12-08T04:14:50.612Z,8.40
2022-12-08T04:17:23.458Z,8.30
2022-12-08T04:19:55.163Z,8.20
2022-12-08T04:22:32.557Z,7.80
2022-12-08T04:25:08.666Z,7.40
2022-12-08T04:27:40.149Z,8.30
2022-12-08T04:37:57.102Z,7.80
2022-12-08T04:40:28.834Z,8.40
2022-12-08T04:43:00.495Z,8.60
2022-12-08T04:45:48.284Z,7.60
2022-12-08T04:48:21.342Z,10.20
2022-12-08T04:50:53.079Z,9.30
2022-12-08T04:53:26.949Z,9.30
2022-12-08T04:55:58.446Z,9.40
2022-12-08T04:58:29.895Z,9.80
2022-12-08T05:01:01.626Z,8.90
2022-12-08T05:03:33.315Z,9.40
2022-12-08T05:06:07.479Z,9.00
2022-12-08T05:08:39.233Z,8.60
2022-12-08T05:11:12.379Z,9.30
2022-12-08T05:13:44.016Z,8.90
2022-12-08T05:16:22.269Z,8.40
2022-12-08T05:18:55.386Z,9.00
2022-12-08T05:21:26.866Z,7.90
2022-12-08T05:24:00.294Z,8.70
2022-12-08T05:26:31.967Z,10.20
2022-12-08T05:29:03.352Z,9.40
2022-12-08T05:31:35.243Z,10.00
2022-12-08T05:34:06.685Z,11.10
2022-12-08T05:36:38.901Z,11.80
2022-12-08T05:39:10.854Z,11.30
2022-12-08T05:41:43.006Z,10.50
2022-12-08T05:44:14.461Z,10.30
2022-12-08T05:46:46.170Z,9.80
2022-12-08T05:49:20.424Z,11.10
2022-12-08T05:51:51.978Z,9.70
2022-12-08T05:54:25.674Z,10.30
2022-12-08T05:57:00.675Z,9.70
2022-12-08T06:00:30.349Z,9.90
2022-12-08T06:02:40.038Z,11.20
2022-12-08T06:05:15.722Z,10.40
2022-12-08T06:07:47.229Z,11.70
2022-12-08T06:10:18.993Z,10.70
2022-12-08T06:12:50.493Z,11.40
2022-12-08T06:15:28.443Z,11.30
2022-12-08T06:17:59.900Z,12.40
2022-12-08T06:20:31.459Z,13.00
2022-12-08T06:23:03.808Z,13.60
2022-12-08T06:25:35.313Z,12.90
2022-12-08T06:28:08.858Z,13.00
2022-12-08T06:30:41.183Z,13.30
2022-12-08T06:33:12.695Z,11.50
2022-12-08T06:35:44.684Z,10.90
2022-12-08T06:38:16.117Z,11.60
2022-12-08T06:40:56.834Z,10.90
2022-12-08T06:43:29.102Z,11.40
2022-12-08T06:46:00.667Z,10.90
2022-12-08T06:48:32.195Z,10.70
2022-12-08T06:51:11.251Z,11.20
2022-12-08T06:53:43.714Z,11.90
2022-12-08T06:56:16.136Z,14.10
2022-12-08T06:58:52.436Z,13.30
2022-12-08T07:01:25.438Z,14.80
2022-12-08T07:03:57.324Z,17.70
2022-12-08T07:06:33.851Z,18.50
2022-12-08T07:09:06.071Z,17.00
2022-12-08T07:11:39.558Z,15.80
2022-12-08T07:14:15.772Z,15.40
2022-12-08T07:16:48.041Z,14.40
2022-12-08T07:19:19.832Z,13.40
2022-12-08T07:21:51.563Z,13.50
2022-12-08T07:24:23.236Z,13.00
2022-12-08T07:26:54.805Z,12.90
2022-12-08T07:29:26.618Z,12.70
2022-12-08T07:31:59.852Z,14.50
2022-12-08T07:34:31.387Z,14.70
2022-12-08T07:37:03.485Z,14.60
2022-12-08T07:39:34.884Z,14.00
2022-12-08T07:42:08.472Z,14.30
2022-12-08T07:44:40.040Z,14.80
2022-12-08T07:47:11.662Z,12.90
2022-12-08T07:49:43.191Z,15.00
2022-12-08T07:52:14.634Z,19.00
2022-12-08T07:54:47.558Z,17.60
2022-12-08T07:57:19.128Z,15.60
2022-12-08T07:59:55.093Z,17.50
2022-12-08T08:02:27.003Z,16.60
2022-12-08T08:04:58.707Z,17.30
2022-12-08T08:07:31.922Z,18.40
2022-12-08T08:10:03.601Z,26.80
2022-12-08T08:12:35.439Z,24.10
2022-12-08T08:15:09.549Z,27.10
2022-12-08T08:17:41.281Z,29.50
2022-12-08T08:20:14.706Z,25.30
2022-12-08T08:22:46.995Z,20.30
2022-12-08T08:25:19.682Z,18.40
2022-12-08T08:27:51.257Z,19.60
2022-12-08T08:30:23.019Z,20.00
2022-12-08T08:32:54.594Z,20.30
2022-12-08T08:35:26.182Z,20.50
2022-12-08T08:37:58.064Z,18.80
2022-12-08T08:40:31.980Z,29.80
2022-12-08T08:43:09.627Z,33.10
2022-12-08T08:45:41.332Z,20.60
2022-12-08T08:48:15.394Z,17.60
2022-12-08T08:50:46.852Z,17.20
2022-12-08T08:53:18.323Z,18.30
2022-12-08T08:55:50.460Z,17.20
2022-12-08T08:58:22.090Z,18.90
2022-12-08T09:00:53.935Z,19.00
2022-12-08T09:03:28.155Z,17.30
2022-12-08T09:06:00.382Z,17.60
2022-12-08T09:08:32.063Z,16.00
2022-12-08T09:11:03.641Z,17.30
2022-12-08T09:13:35.408Z,16.20
2022-12-08T09:16:08.816Z,17.60
2022-12-08T09:18:40.891Z,16.70
2022-12-08T09:21:16.786Z,17.30
2022-12-08T09:23:48.415Z,17.50
2022-12-08T09:26:23.732Z,18.30
2022-12-08T09:28:58.590Z,18.30
2022-12-08T09:31:30.274Z,17.80
2022-12-08T09:34:01.985Z,17.90
2022-12-08T09:36:34.152Z,19.40
2022-12-08T09:39:06.041Z,19.70
2022-12-08T09:41:48.260Z,22.20
2022-12-08T09:44:50.481Z,40.20
2022-12-08T09:47:33.759Z,21.80
2022-12-08T09:52:46.255Z,20.90
2022-12-08T09:55:26.091Z,20.70
2022-12-08T09:58:05.014Z,20.50
2022-12-08T10:00:43.455Z,22.80
2022-12-08T10:03:17.048Z,19.90
2022-12-08T10:05:57.570Z,19.80
2022-12-08T10:08:36.230Z,21.20
2022-12-08T10:11:15.821Z,20.50
2022-12-08T10:13:54.776Z,20.00
2022-12-08T10:16:36.316Z,20.00
2022-12-08T10:19:15.921Z,20.70
2022-12-08T10:21:48.061Z,20.50
2022-12-08T10:24:27.709Z,22.60
2022-12-08T10:27:00.352Z,20.10
2022-12-08T10:29:31.962Z,21.80
2022-12-08T10:32:11.391Z,21.70
2022-12-08T10:35:03.192Z,22.20
2022-12-08T10:37:35.070Z,21.70
2022-12-08T10:40:13.064Z,21.90
2022-12-08T10:42:48.837Z,24.10
2022-12-08T10:45:28.066Z,22.80
2022-12-08T10:48:06.272Z,23.10
2022-12-08T10:50:43.698Z,23.70
2022-12-08T10:53:23.034Z,23.70
2022-12-08T10:56:08.484Z,28.00
2022-12-08T10:58:42.282Z,28.80
2022-12-08T11:01:18.773Z,25.60
2022-12-08T11:03:53.150Z,29.10
2022-12-08T11:06:27.692Z,26.60
2022-12-08T11:09:01.613Z,27.20
2022-12-08T11:11:49.415Z,28.50
2022-12-08T11:14:24.435Z,28.10
2022-12-08T11:16:58.892Z,24.70
2022-12-08T11:19:32.611Z,27.50
2022-12-08T11:22:04.460Z,27.30
2022-12-08T11:24:39.090Z,29.70
2022-12-08T11:27:12.429Z,33.00
2022-12-08T11:29:44.469Z,34.60
2022-12-08T11:32:16.705Z,33.60
2022-12-08T11:34:52.367Z,31.20
2022-12-08T11:37:34.664Z,32.20
2022-12-08T11:40:16.264Z,31.40
2022-12-08T11:42:56.644Z,35.00
2022-12-08T11:45:33.756Z,33.80
2022-12-08T11:48:13.736Z,36.00
2022-12-08T11:50:51.904Z,32.60
2022-12-08T11:53:31.028Z,25.50
2022-12-08T11:56:08.573Z,33.30
2022-12-08T11:58:45.423Z,34.10
2022-12-08T12:01:23.067Z,34.60
2022-12-08T12:04:08.757Z,35.20
2022-12-08T12:07:12.291Z,31.60
2022-12-08T12:09:53.980Z,29.80
2022-12-08T12:12:40.040Z,34.70
2022-12-08T12:15:36.246Z,32.60
2022-12-08T12:18:16.902Z,29.30
2022-12-08T12:20:57.461Z,31.50
2022-12-08T12:23:40.194Z,35.20
2022-12-08T12:26:22.953Z,32.10
2022-12-08T12:28:58.471Z,33.80
2022-12-08T12:31:33.540Z,35.10
2022-12-08T12:34:12.790Z,31.80
2022-12-08T12:36:57.196Z,29.50
2022-12-08T12:39:32.686Z,25.40
2022-12-08T12:42:05.885Z,25.80
2022-12-08T12:44:44.911Z,27.00
2022-12-08T12:47:55.945Z,25.60
2022-12-08T12:50:47.988Z,23.00
2022-12-08T12:53:52.344Z,20.10
2022-12-08T12:56:50.188Z,21.80
2022-12-08T12:59:50.222Z,21.30
2022-12-08T13:02:29.245Z,20.60
2022-12-08T13:05:10.346Z,19.10
2022-12-08T13:07:55.704Z,20.40
2022-12-08T13:10:31.053Z,21.70
2022-12-08T13:13:19.535Z,23.10
2022-12-08T13:15:56.606Z,21.90
2022-12-08T13:18:34.338Z,19.30
2022-12-08T13:21:15.434Z,20.00
2022-12-08T13:23:49.505Z,19.80
2022-12-08T13:26:33.808Z,22.20
2022-12-08T13:29:18.682Z,20.50
2022-12-08T13:31:53.410Z,20.60
2022-12-08T13:34:47.172Z,20.40
2022-12-08T13:37:27.600Z,17.70
2022-12-08T13:40:04.322Z,16.70
2022-12-08T13:42:47.568Z,18.50
2022-12-08T13:48:41.666Z,21.20
2022-12-08T13:57:22.013Z,18.80
2022-12-08T13:59:53.787Z,19.30
2022-12-08T14:02:34.367Z,17.30
2022-12-08T14:05:40.461Z,17.00
2022-12-08T14:07:59.619Z,16.80
2022-12-08T14:10:33.805Z,16.50
2022-12-08T14:13:07.908Z,17.30
2022-12-08T14:15:41.213Z,18.60
2022-12-08T14:18:27.503Z,19.80
2022-12-08T14:21:23.319Z,19.40
2022-12-08T14:23:54.853Z,20.50
2022-12-08T14:26:26.644Z,18.90
2022-12-08T14:28:58.349Z,21.30
2022-12-08T14:31:30.808Z,21.50
2022-12-08T14:34:02.604Z,27.00
2022-12-08T14:36:34.552Z,27.40
2022-12-08T14:39:06.294Z,22.10
2022-12-08T14:41:38.064Z,18.40
2022-12-08T14:44:25.156Z,17.10
2022-12-08T14:47:11.765Z,16.60
2022-12-08T14:49:44.873Z,17.00
2022-12-08T14:52:17.305Z,17.90
2022-12-08T14:54:51.227Z,17.70
2022-12-08T14:57:23.101Z,17.30
2022-12-08T15:00:00.746Z,17.20
2022-12-08T15:02:43.682Z,16.70
2022-12-08T15:05:17.699Z,17.30
2022-12-08T15:07:52.411Z,18.00
2022-12-08T15:10:29.902Z,17.70
2022-12-08T15:13:08.971Z,17.40
2022-12-08T15:15:53.302Z,19.00
2022-12-08T15:18:37.931Z,19.10
2022-12-08T15:21:13.319Z,19.10
2022-12-08T15:23:52.703Z,19.30
2022-12-08T15:26:28.570Z,21.70
2022-12-08T15:29:11.088Z,28.00
2022-12-08T15:31:43.476Z,27.40
2022-12-08T15:34:18.924Z,24.90
2022-12-08T15:36:54.027Z,27.10
2022-12-08T15:39:36.214Z,23.90
2022-12-08T15:42:13.541Z,24.90
2022-12-08T15:44:46.614Z,27.50
2022-12-08T15:47:24.314Z,24.80
2022-12-08T15:49:59.411Z,24.70
2022-12-08T15:52:31.154Z,25.50
2022-12-08T15:55:03.048Z,28.20
2022-12-08T15:58:17.382Z,33.40
2022-12-08T16:00:53.444Z,33.00
2022-12-08T16:07:12.856Z,27.20
2022-12-08T16:09:25.527Z,25.30
2022-12-08T16:12:15.331Z,26.40
2022-12-08T16:17:41.198Z,27.00
2022-12-08T16:20:17.267Z,24.50
2022-12-08T16:22:56.767Z,22.50
2022-12-08T16:25:52.729Z,22.70
2022-12-08T16:28:52.989Z,22.80
2022-12-08T16:31:22.656Z,21.90
2022-12-08T16:34:05.633Z,21.70
2022-12-08T16:36:39.011Z,22.50
2022-12-08T16:39:12.133Z,22.40
2022-12-08T16:42:01.831Z,21.90
2022-12-08T16:44:33.586Z,22.10
2022-12-08T16:47:13.042Z,21.90
2022-12-08T16:49:45.231Z,21.40
2022-12-08T16:52:20.355Z,22.60
2022-12-08T16:54:53.546Z,23.00
2022-12-08T16:57:25.716Z,21.10
2022-12-08T16:59:57.657Z,22.70
2022-12-08T17:02:32.072Z,23.00
2022-12-08T17:05:04.130Z,23.70
2022-12-08T17:07:38.534Z,24.00
2022-12-08T17:10:13.637Z,22.60
2022-12-08T17:12:46.839Z,23.30
2022-12-08T17:15:20.891Z,23.90
2022-12-08T17:17:53.882Z,23.10
2022-12-08T17:20:27.740Z,22.60
2022-12-08T17:23:00.550Z,22.80
2022-12-08T17:25:33.625Z,23.70
2022-12-08T17:28:05.255Z,23.20
2022-12-08T17:30:37.094Z,23.00
2022-12-08T17:33:10.063Z,23.30
2022-12-08T17:35:41.789Z,23.40
2022-12-08T17:38:14.384Z,23.10
2022-12-08T17:40:47.296Z,22.70
2022-12-08T17:43:20.117Z,21.60
2022-12-08T17:45:56.487Z,22.30
2022-12-08T17:48:29.352Z,22.80
2022-12-08T17:51:01.286Z,23.00
2022-12-08T17:53:37.372Z,24.40
2022-12-08T17:56:16.448Z,23.50
2022-12-08T17:58:54.555Z,23.10
2022-12-08T18:01:29.407Z,22.70
2022-12-08T18:04:02.860Z,23.70
2022-12-08T18:06:36.674Z,23.10
2022-12-08T18:09:12.387Z,23.70
2022-12-08T18:11:46.466Z,22.50
2022-12-08T18:14:19.685Z,22.90
2022-12-08T18:16:52.061Z,21.80
2022-12-08T18:19:25.442Z,24.00
2022-12-08T18:21:57.648Z,26.00
2022-12-08T18:24:29.783Z,25.30
2022-12-08T18:27:04.228Z,24.00
2022-12-08T18:29:43.423Z,25.30
2022-12-08T18:32:15.068Z,28.00
2022-12-08T18:34:47.800Z,27.10
2022-12-08T18:37:20.196Z,25.90
2022-12-08T18:39:55.371Z,24.50
2022-12-08T18:42:37.022Z,24.00
2022-12-08T18:45:12.379Z,24.40
2022-12-08T18:47:48.999Z,23.30
2022-12-08T18:50:26.044Z,24.00
2022-12-08T18:53:00.034Z,21.40
2022-12-08T18:55:32.772Z,21.20
2022-12-08T18:58:05.659Z,19.30
2022-12-08T19:00:39.515Z,19.10
2022-12-08T19:03:13.948Z,19.60
2022-12-08T19:05:46.149Z,20.00
2022-12-08T19:08:24.428Z,18.40
2022-12-08T19:11:04.078Z,19.80
2022-12-08T19:13:37.822Z,19.90
2022-12-08T19:16:12.512Z,20.30
2022-12-08T19:18:47.796Z,20.00
2022-12-08T19:21:24.702Z,20.60
2022-12-08T19:24:01.383Z,22.10
2022-12-08T19:26:36.177Z,27.10
2022-12-08T19:31:41.103Z,29.20
2022-12-08T19:34:16.195Z,29.30
2022-12-08T19:36:50.103Z,28.00
2022-12-08T19:39:43.698Z,26.70
2022-12-08T19:42:40.363Z,24.60
2022-12-08T19:45:19.260Z,23.80
2022-12-08T19:47:53.910Z,22.00
2022-12-08T19:50:40.869Z,23.30
2022-12-08T19:53:16.918Z,22.00
2022-12-08T19:55:51.008Z,23.20
2022-12-08T19:58:34.505Z,23.70
2022-12-08T20:01:13.684Z,23.00
2022-12-08T20:03:48.991Z,23.60
2022-12-08T20:06:23.530Z,22.30
2022-12-08T20:08:58.796Z,22.00
2022-12-08T20:11:35.832Z,22.50
2022-12-08T20:14:13.071Z,22.40
2022-12-08T20:16:48.180Z,23.50
2022-12-08T20:19:26.554Z,23.10
2022-12-08T20:22:04.862Z,23.70
2022-12-08T20:24:38.237Z,24.20
2022-12-08T20:27:13.028Z,26.40
2022-12-08T20:29:46.840Z,24.90
2022-12-08T20:32:20.215Z,24.60
2022-12-08T20:34:56.566Z,23.70
2022-12-08T20:37:30.412Z,22.90
2022-12-08T20:40:03.588Z,24.50
2022-12-08T20:42:37.797Z,22.80
2022-12-08T20:45:12.716Z,23.80
2022-12-08T20:47:47.932Z,22.60
2022-12-08T20:50:20.761Z,22.90
2022-12-08T20:52:53.742Z,22.50
2022-12-08T20:55:26.069Z,23.30
2022-12-08T20:57:59.110Z,23.00
2022-12-08T21:00:32.495Z,23.30
2022-12-08T21:03:04.509Z,22.30
2022-12-08T21:05:40.748Z,23.30
2022-12-08T21:08:14.220Z,22.00
2022-12-08T21:10:46.181Z,23.60
2022-12-08T21:13:18.098Z,23.40
2022-12-08T21:15:49.934Z,23.40
2022-12-08T21:18:23.290Z,23.90
2022-12-08T21:21:03.261Z,23.50
2022-12-08T21:23:36.607Z,24.40
2022-12-08T21:26:13.811Z,26.10
2022-12-08T21:28:49.746Z,24.90
2022-12-08T21:31:27.123Z,23.70
2022-12-08T21:34:00.652Z,24.50
2022-12-08T21:36:33.116Z,24.10
2022-12-08T21:39:14.059Z,23.50
2022-12-08T21:42:05.590Z,22.80
2022-12-08T21:44:39.305Z,23.40
2022-12-08T21:47:28.139Z,24.10
2022-12-08T21:50:11.657Z,23.70
2022-12-08T21:52:45.512Z,23.70
2022-12-08T21:55:24.761Z,23.50
2022-12-08T21:57:57.321Z,23.00
2022-12-08T22:00:29.983Z,23.10
2022-12-08T22:03:03.452Z,22.80
2022-12-08T22:05:56.396Z,23.20
2022-12-08T22:08:34.306Z,23.50
2022-12-08T22:11:12.180Z,23.90
2022-12-08T22:13:45.720Z,23.50
2022-12-08T22:16:17.880Z,23.80
2022-12-08T22:18:49.727Z,24.80
2022-12-08T22:21:22.335Z,23.40
2022-12-08T22:23:54.591Z,26.90
2022-12-08T22:26:26.413Z,24.90
2022-12-08T22:28:58.797Z,25.80
2022-12-08T22:31:30.716Z,25.90
2022-12-08T22:34:03.786Z,25.00
2022-12-08T22:36:35.645Z,24.10
2022-12-08T22:39:07.514Z,24.70
2022-12-08T22:41:39.557Z,25.30
2022-12-08T22:44:13.069Z,26.50
2022-12-08T22:46:45.119Z,23.90
2022-12-08T22:49:17.567Z,24.20
2022-12-08T22:51:50.704Z,23.30
2022-12-08T22:54:22.365Z,23.20
2022-12-08T22:56:54.234Z,21.50
2022-12-08T22:59:25.942Z,24.20
2022-12-08T23:01:58.120Z,23.20
2022-12-08T23:04:29.782Z,22.90
2022-12-08T23:07:01.799Z,23.40
2022-12-08T23:09:33.336Z,22.40
2022-12-08T23:12:05.504Z,23.60
2022-12-08T23:14:37.315Z,23.50
2022-12-08T23:17:09.226Z,23.30
2022-12-08T23:19:43.005Z,22.80
2022-12-08T23:22:14.637Z,22.20
2022-12-08T23:24:46.942Z,22.50
2022-12-08T23:27:18.427Z,23.30
2022-12-08T23:29:50.427Z,22.30
2022-12-08T23:32:23.651Z,23.00
2022-12-08T23:34:55.417Z,22.00
2022-12-08T23:37:27.446Z,23.20
2022-12-08T23:39:59.454Z,22.80
2022-12-08T23:42:31.794Z,21.80
2022-12-08T23:45:04.589Z,22.90
2022-12-08T23:47:36.438Z,22.20
2022-12-08T23:50:12.385Z,20.70
2022-12-08T23:52:44.397Z,21.80
2022-12-08T23:55:16.484Z,21.20
2022-12-08T23:57:48.550Z,22.70
